KTMB/TMB METAR and TAF weather

Enter ICAO airport designator
Station Type Date Time Source
KTMB METAR 2018/12/13 21:53 UTC NOAA

KTMB 132153Z 13011KT 10SM CLR 25/16 A3008 RMK AO2 SLP183 T02500161


Station Type Date Time Source
KTMB Decoded METAR 2018/12/13 21:53 UTC NOAA

KENDALL-TAMIAMI EXEC AIRPORT , FL, United States (KTMB) 25-39N 080-26W 2M
Dec 13, 2018 - 04:53 PM EST / 2018.12.13 2153 UTC
Wind: from the SE (130 degrees) at 13 MPH (11 KT):0
Visibility: 10 mile(s):0
Sky conditions: clear
Temperature: 77.0 F (25.0 C)
Dew Point: 61.0 F (16.1 C)
Relative Humidity: 57%
Pressure (altimeter): 30.08 in. Hg (1018 hPa)
ob: KTMB 132153Z 13011KT 10SM CLR 25/16 A3008 RMK AO2 SLP183 T02500161
cycle: 22

Station Type Date Time Source
KTMB TAF 2018/12/13 21:06 UTC NOAA

TAF
AMD KTMB 132105Z 1321/1418 13012KT P6SM FEW040 BKN250
FM140000 12006KT P6SM SCT050 BKN250
FM141400 14015G25KT P6SM SCT025 BKN050 BKN250


Example: see airport list